Time;durP1;ratioP1;P1;durP2;ratioP2;P2;SDS_P1;SDS_P2;PMS_P1;PMS_P2;Temp;Humidity;BMP_temperature;BMP_pressure;BME280_temperature;BME280_humidity;BME280_pressure;Samples;Min_cycle;Max_cycle;Signal;HPM_P1;HPM_P2
2022/01/31 00:01:29;;;;;;;14.18;5.78;;;;;;;-2.04;69.94;97722.38;5002377;28;20046;-77
2022/01/31 00:03:55;;;;;;;13.90;5.85;;;;;;;-2.19;70.16;97701.84;5011224;28;20147;-78
2022/01/31 00:06:21;;;;;;;16.58;6.35;;;;;;;-2.10;70.08;97724.03;5018602;28;20401;-78
2022/01/31 00:08:47;;;;;;;11.55;5.53;;;;;;;-2.08;69.85;97724.88;4986339;28;20048;-78
2022/01/31 00:11:13;;;;;;;10.63;5.32;;;;;;;-2.17;70.49;97695.94;5002448;28;20049;-78
2022/01/31 00:13:43;;;;;;;11.40;5.55;;;;;;;-1.97;70.04;97716.47;5023135;28;20041;-78
2022/01/31 00:16:14;;;;;;;13.35;6.32;;;;;;;-2.03;71.21;97692.63;5005654;28;20100;-79
2022/01/31 00:18:40;;;;;;;13.98;6.20;;;;;;;-1.98;69.69;97714.75;5023466;28;20929;-80
2022/01/31 00:21:07;;;;;;;11.32;5.68;;;;;;;-1.95;70.37;97711.41;5021879;28;20047;-78
2022/01/31 00:23:32;;;;;;;12.23;6.40;;;;;;;-1.87;70.33;97709.75;5004711;28;20401;-77
2022/01/31 00:25:59;;;;;;;15.20;6.80;;;;;;;-2.19;69.86;97679.78;5020814;28;20114;-78
2022/01/31 00:28:25;;;;;;;14.63;5.97;;;;;;;-2.23;69.68;97667.00;5004069;28;20259;-78
2022/01/31 00:30:50;;;;;;;12.70;6.28;;;;;;;-2.24;69.97;97685.69;5004840;28;20117;-79
2022/01/31 00:33:16;;;;;;;19.33;7.45;;;;;;;-2.26;69.96;97680.56;5007520;28;20577;-78
2022/01/31 00:35:42;;;;;;;13.60;6.65;;;;;;;-2.16;69.99;97706.97;4993464;28;20040;-78
2022/01/31 00:38:08;;;;;;;15.20;6.25;;;;;;;-2.17;70.46;97690.84;5021947;28;20037;-78
2022/01/31 00:40:41;;;;;;;11.77;5.70;;;;;;;-2.16;70.85;97676.38;5006882;28;20124;-80
2022/01/31 00:43:11;;;;;;;12.98;6.25;;;;;;;-1.85;70.27;97708.06;4989959;28;20040;-77
2022/01/31 00:45:43;;;;;;;13.95;6.45;;;;;;;-1.91;70.98;97680.00;5007145;28;20042;-78
2022/01/31 00:48:16;;;;;;;15.18;6.30;;;;;;;-1.93;69.40;97706.31;5004004;28;20104;-78
2022/01/31 00:50:44;;;;;;;12.98;6.63;;;;;;;-2.12;69.66;97683.22;4977480;28;20043;-79
2022/01/31 00:53:10;;;;;;;13.65;6.70;;;;;;;-2.01;70.63;97696.06;5007520;28;20493;-77
2022/01/31 00:55:36;;;;;;;12.65;6.22;;;;;;;-2.07;71.10;97662.84;5007855;28;20037;-79
2022/01/31 00:58:01;;;;;;;13.07;6.45;;;;;;;-1.89;70.45;97662.16;4989161;28;20041;-77
2022/01/31 01:00:27;;;;;;;14.27;6.70;;;;;;;-2.08;69.85;97651.81;5004272;28;20052;-77
2022/01/31 01:02:53;;;;;;;17.55;6.72;;;;;;;-2.14;69.46;97672.16;5023900;28;20049;-78
2022/01/31 01:05:20;;;;;;;14.30;6.72;;;;;;;-2.16;69.80;97673.84;4995513;28;20297;-79
2022/01/31 01:07:46;;;;;;;13.27;7.20;;;;;;;-2.13;69.85;97692.56;4995542;28;20489;-79
2022/01/31 01:10:17;;;;;;;14.68;7.22;;;;;;;-2.15;70.73;97666.22;5026801;28;20504;-78
2022/01/31 01:12:44;;;;;;;13.38;6.20;;;;;;;-1.89;69.65;97701.25;5027306;28;20045;-80
2022/01/31 01:15:11;;;;;;;18.33;7.28;;;;;;;-2.22;69.61;97672.09;5004302;28;20501;-78
2022/01/31 01:17:37;;;;;;;14.25;7.00;;;;;;;-2.12;70.50;97681.53;5004452;28;20148;-79
2022/01/31 01:20:04;;;;;;;15.93;7.05;;;;;;;-2.14;70.16;97673.03;5005807;28;20136;-79
2022/01/31 01:22:31;;;;;;;16.00;6.85;;;;;;;-2.18;69.61;97678.94;5006708;28;20161;-78
2022/01/31 01:24:58;;;;;;;14.32;6.72;;;;;;;-2.31;69.64;97665.25;5004561;28;20191;-79
2022/01/31 01:27:24;;;;;;;15.00;6.97;;;;;;;-2.22;69.94;97669.56;5003532;28;21131;-80
2022/01/31 01:29:51;;;;;;;13.23;6.68;;;;;;;-1.97;70.81;97682.50;5010975;28;20041;-80
2022/01/31 01:32:19;;;;;;;15.15;7.47;;;;;;;-1.88;70.56;97668.94;4994329;28;20064;-78
2022/01/31 01:34:45;;;;;;;13.77;6.88;;;;;;;-1.86;70.03;97675.75;4995008;28;20046;-79
2022/01/31 01:37:11;;;;;;;16.50;7.70;;;;;;;-1.74;70.61;97671.59;5005145;28;20037;-79
2022/01/31 01:39:36;;;;;;;14.88;6.65;;;;;;;-1.91;69.51;97662.16;5024800;28;20033;-78
2022/01/31 01:42:02;;;;;;;16.10;6.85;;;;;;;-1.83;69.21;97690.25;5021063;28;20326;-79
2022/01/31 01:44:43;;;;;;;15.95;6.72;;;;;;;-1.92;69.71;97691.03;5024290;28;20033;-78
2022/01/31 01:47:10;;;;;;;13.75;6.90;;;;;;;-2.17;70.42;97650.06;4982674;28;20069;-78
2022/01/31 01:49:35;;;;;;;18.23;7.03;;;;;;;-2.16;69.66;97672.16;4992483;28;20072;-77
2022/01/31 01:52:03;;;;;;;17.67;7.30;;;;;;;-2.07;70.32;97681.56;4995111;28;20959;-78
2022/01/31 01:54:29;;;;;;;14.20;7.70;;;;;;;-1.85;70.49;97697.03;4988599;28;20042;-79
2022/01/31 01:56:55;;;;;;;16.75;7.65;;;;;;;-1.92;70.45;97678.28;5002582;28;20099;-80
2022/01/31 01:59:22;;;;;;;15.10;6.93;;;;;;;-1.79;70.34;97691.97;5009783;28;20053;-78
2022/01/31 02:02:07;;;;;;;16.30;7.20;;;;;;;-1.98;69.63;97689.28;5022089;28;20492;-77
2022/01/31 02:04:33;;;;;;;14.88;6.80;;;;;;;-2.09;69.69;97678.16;4972532;28;20045;-79
2022/01/31 02:06:59;;;;;;;16.52;7.35;;;;;;;-2.16;70.45;97682.34;5010317;28;20131;-77
2022/01/31 02:09:28;;;;;;;16.52;7.95;;;;;;;-2.03;70.56;97688.41;4990024;28;20037;-80
2022/01/31 02:11:55;;;;;;;18.77;7.97;;;;;;;-1.87;71.09;97684.25;4993482;28;20098;-80
2022/01/31 02:14:22;;;;;;;14.45;6.97;;;;;;;-2.11;70.14;97662.00;4992791;28;20041;-79
2022/01/31 02:17:06;;;;;;;19.65;8.40;;;;;;;-2.04;70.92;97690.91;5022575;28;20087;-78
2022/01/31 02:19:38;;;;;;;17.70;7.68;;;;;;;-2.15;70.54;97668.78;5002325;28;20481;-79
2022/01/31 02:22:21;;;;;;;18.77;7.53;;;;;;;-2.03;70.68;97668.00;4989732;28;20582;-79
2022/01/31 02:24:59;;;;;;;15.77;7.35;;;;;;;-1.99;71.26;97663.78;5014854;28;20151;-78
2022/01/31 02:27:44;;;;;;;15.23;6.90;;;;;;;-1.69;70.31;97688.63;5022679;28;20397;-79
2022/01/31 02:30:14;;;;;;;19.50;7.95;;;;;;;-1.74;70.81;97700.47;4993652;28;20050;-79
2022/01/31 02:32:43;;;;;;;19.02;7.57;;;;;;;-1.98;69.84;97647.63;5022115;28;20049;-78
2022/01/31 02:35:11;;;;;;;19.08;7.85;;;;;;;-1.89;70.17;97687.63;5010054;28;20123;-77
2022/01/31 02:37:38;;;;;;;18.17;7.63;;;;;;;-2.30;69.75;97646.56;4993962;28;20041;-78
2022/01/31 02:40:24;;;;;;;13.88;7.10;;;;;;;-2.10;69.98;97670.50;5025734;28;20045;-78
2022/01/31 02:42:52;;;;;;;17.27;7.60;;;;;;;-1.78;71.33;97687.72;5008777;28;20124;-77
2022/01/31 02:45:19;;;;;;;16.80;7.97;;;;;;;-1.72;70.78;97680.13;5025116;28;20038;-78
2022/01/31 02:47:52;;;;;;;17.05;7.18;;;;;;;-1.71;70.51;97679.28;4994200;28;20405;-78
2022/01/31 02:50:18;;;;;;;18.02;7.50;;;;;;;-1.76;69.80;97675.84;4975412;28;20071;-78
2022/01/31 02:52:48;;;;;;;15.30;8.13;;;;;;;-1.76;70.23;97686.03;5008743;28;20060;-79
2022/01/31 02:55:17;;;;;;;18.88;7.80;;;;;;;-1.74;70.87;97679.25;4989015;28;20095;-79
2022/01/31 02:57:43;;;;;;;15.98;7.45;;;;;;;-1.91;70.13;97658.72;4981282;28;20041;-79
2022/01/31 03:00:12;;;;;;;20.83;8.38;;;;;;;-1.75;70.54;97682.63;4993217;28;20058;-79
2022/01/31 03:03:02;;;;;;;19.13;7.70;;;;;;;-1.91;70.41;97669.78;4997643;28;20129;-78
2022/01/31 03:05:28;;;;;;;18.15;8.02;;;;;;;-1.92;70.31;97665.53;4999637;28;20091;-79
2022/01/31 03:07:53;;;;;;;16.08;7.13;;;;;;;-1.78;70.68;97673.28;4991484;28;20045;-80
2022/01/31 03:10:20;;;;;;;15.50;7.40;;;;;;;-1.71;69.94;97677.56;5010154;28;20089;-79
2022/01/31 03:12:45;;;;;;;15.40;8.13;;;;;;;-1.89;70.18;97663.00;5002291;28;20051;-78
2022/01/31 03:15:11;;;;;;;16.00;8.15;;;;;;;-1.79;69.92;97657.97;5001995;28;20042;-80
2022/01/31 03:17:55;;;;;;;19.05;8.80;;;;;;;-1.81;70.60;97657.97;5004297;28;20051;-80
2022/01/31 03:20:23;;;;;;;17.77;8.18;;;;;;;-1.70;70.83;97660.56;5008153;28;20136;-78
2022/01/31 03:22:50;;;;;;;21.10;8.82;;;;;;;-1.54;71.17;97664.03;5022614;28;20046;-78
2022/01/31 03:25:17;;;;;;;18.98;8.18;;;;;;;-1.49;69.58;97684.50;5036530;28;20603;-79
2022/01/31 03:27:44;;;;;;;19.08;8.32;;;;;;;-1.43;70.24;97687.06;4989377;28;20057;-76
2022/01/31 03:30:15;;;;;;;16.80;7.90;;;;;;;-1.35;71.20;97695.63;4990233;28;20064;-79
2022/01/31 03:32:41;;;;;;;17.45;7.82;;;;;;;-1.30;71.11;97681.19;5005504;28;21065;-77
2022/01/31 03:35:07;;;;;;;16.17;8.32;;;;;;;-1.24;70.94;97691.44;4972901;28;20075;-77
2022/01/31 03:37:34;;;;;;;18.27;8.23;;;;;;;-1.33;70.56;97667.56;5020631;28;20599;-80
2022/01/31 03:40:00;;;;;;;18.65;7.82;;;;;;;-1.16;70.18;97693.16;4975238;28;20046;-75
2022/01/31 03:42:27;;;;;;;20.35;8.43;;;;;;;-1.19;70.25;97677.81;5018773;28;20401;-77
2022/01/31 03:44:53;;;;;;;17.58;8.48;;;;;;;-1.15;69.86;97695.72;5001068;28;20037;-78
2022/01/31 03:47:23;;;;;;;18.52;8.13;;;;;;;-1.49;69.21;97675.13;4987411;28;20044;-80
2022/01/31 03:49:51;;;;;;;19.05;8.15;;;;;;;-1.43;70.61;97679.41;4992165;28;20049;-78
2022/01/31 03:52:17;;;;;;;17.00;7.93;;;;;;;-1.49;70.14;97685.34;5005876;28;20060;-80
2022/01/31 03:54:49;;;;;;;19.33;9.40;;;;;;;-1.60;70.60;97659.75;4976544;28;20175;-79
2022/01/31 03:57:15;;;;;;;20.65;9.00;;;;;;;-1.29;70.45;97680.34;5006192;28;20037;-78
2022/01/31 04:00:10;;;;;;;15.60;8.25;;;;;;;-1.48;69.98;97681.09;5006784;28;20061;-79
2022/01/31 04:02:43;;;;;;;18.63;9.18;;;;;;;-1.45;70.71;97676.84;5004397;28;20079;-80
2022/01/31 04:05:09;;;;;;;19.95;8.07;;;;;;;-1.39;70.96;97676.91;5001236;28;20049;-81
2022/01/31 04:07:35;;;;;;;18.60;8.30;;;;;;;-1.61;70.11;97641.91;5006922;28;20131;-78
2022/01/31 04:10:03;;;;;;;20.45;8.45;;;;;;;-1.66;69.96;97664.84;4991977;28;20049;-80
2022/01/31 04:12:29;;;;;;;18.05;8.38;;;;;;;-1.65;69.92;97670.78;4996216;28;20386;-78
2022/01/31 04:15:04;;;;;;;18.88;8.52;;;;;;;-1.60;69.90;97687.00;5006113;28;20098;-84
2022/01/31 04:17:32;;;;;;;20.52;9.00;;;;;;;-1.61;71.21;97681.00;4995800;28;20050;-78
2022/01/31 04:19:57;;;;;;;22.00;8.70;;;;;;;-1.83;70.99;97649.44;5006914;28;20049;-77
2022/01/31 04:22:26;;;;;;;19.38;8.68;;;;;;;-1.49;71.08;97679.41;5021186;28;20488;-78
2022/01/31 04:24:58;;;;;;;16.13;7.78;;;;;;;-1.41;70.71;97659.84;5021585;28;20057;-76
2022/01/31 04:27:27;;;;;;;16.95;7.95;;;;;;;-1.44;71.14;97670.06;5001254;28;20397;-76
2022/01/31 04:29:53;;;;;;;16.92;8.45;;;;;;;-1.67;70.57;97656.34;4991355;28;20042;-78
2022/01/31 04:32:19;;;;;;;13.70;7.13;;;;;;;-1.83;70.60;97639.25;5003464;28;20048;-78
2022/01/31 04:34:44;;;;;;;18.48;7.93;;;;;;;-1.67;70.39;97668.25;5018172;28;20042;-79
2022/01/31 04:37:10;;;;;;;20.17;9.07;;;;;;;-1.84;70.79;97640.91;5020632;28;20046;-78
2022/01/31 04:39:36;;;;;;;17.67;7.60;;;;;;;-1.89;70.51;97649.41;5020776;28;20040;-76
2022/01/31 04:42:03;;;;;;;20.52;8.40;;;;;;;-1.78;71.54;97657.13;4990265;28;20501;-78
2022/01/31 04:44:28;;;;;;;17.45;8.15;;;;;;;-1.45;71.67;97670.91;4996918;28;20049;-78
2022/01/31 04:46:54;;;;;;;17.42;9.10;;;;;;;-1.44;71.65;97647.94;5000233;28;20033;-77
2022/01/31 04:49:20;;;;;;;18.40;9.02;;;;;;;-1.19;71.35;97670.16;5021490;28;20896;-77
2022/01/31 04:51:47;;;;;;;21.98;9.23;;;;;;;-1.10;71.16;97677.88;5020843;28;20069;-79
2022/01/31 04:54:12;;;;;;;16.83;8.68;;;;;;;-1.42;70.42;97653.03;5022610;28;20052;-78
2022/01/31 04:56:41;;;;;;;16.48;7.68;;;;;;;-1.25;70.50;97676.09;5003677;28;20045;-77
2022/01/31 04:59:07;;;;;;;14.30;8.18;;;;;;;-1.43;69.84;97653.88;5022405;28;20052;-77
2022/01/31 05:01:34;;;;;;;16.23;8.05;;;;;;;-1.49;70.98;97661.53;5001719;28;20038;-76
2022/01/31 05:03:59;;;;;;;16.23;7.32;;;;;;;-1.43;71.70;97661.53;5017407;28;20048;-77
2022/01/31 05:06:33;;;;;;;15.88;7.72;;;;;;;-1.40;70.61;97666.66;5008544;28;20037;-77
2022/01/31 05:08:59;;;;;;;18.00;7.18;;;;;;;-1.54;70.14;97662.34;5001376;28;20041;-78
2022/01/31 05:11:25;;;;;;;14.70;7.32;;;;;;;-1.46;71.31;97685.34;5004142;28;20483;-77
2022/01/31 05:13:50;;;;;;;18.55;7.55;;;;;;;-1.58;71.36;97652.97;5020510;28;20124;-76
2022/01/31 05:16:16;;;;;;;13.30;7.05;;;;;;;-1.31;70.69;97678.63;5020342;28;20056;-76
2022/01/31 05:18:44;;;;;;;16.92;7.30;;;;;;;-1.39;70.64;97686.25;5020632;28;20042;-76
2022/01/31 05:21:10;;;;;;;17.67;7.55;;;;;;;-1.60;70.17;97664.88;5020247;28;20132;-76
2022/01/31 05:23:36;;;;;;;17.70;7.90;;;;;;;-1.48;70.87;97687.03;5020529;28;20037;-76
2022/01/31 05:26:02;;;;;;;15.43;7.88;;;;;;;-1.55;71.13;97673.41;5004037;28;20053;-77
2022/01/31 05:28:27;;;;;;;14.77;7.53;;;;;;;-1.39;70.95;97676.03;5018776;28;20033;-76
2022/01/31 05:30:53;;;;;;;17.42;7.40;;;;;;;-1.52;69.83;97665.78;4992366;28;20041;-75
2022/01/31 05:33:19;;;;;;;15.80;7.65;;;;;;;-1.35;71.39;97687.97;4993610;28;20460;-76
2022/01/31 05:35:45;;;;;;;16.15;7.47;;;;;;;-1.28;71.24;97681.19;5005297;28;20048;-77
2022/01/31 05:38:12;;;;;;;16.63;7.63;;;;;;;-1.29;70.84;97671.81;5004713;28;20038;-78
2022/01/31 05:40:38;;;;;;;18.40;8.57;;;;;;;-1.09;71.00;97689.78;5006562;28;20040;-77
2022/01/31 05:43:03;;;;;;;15.18;7.53;;;;;;;-1.23;70.44;97685.50;5002627;28;20152;-77
2022/01/31 05:45:29;;;;;;;14.55;7.50;;;;;;;-1.41;70.25;97673.47;4998341;28;20409;-78
2022/01/31 05:47:55;;;;;;;18.38;9.05;;;;;;;-1.19;71.24;97682.91;5010415;28;20042;-79
2022/01/31 05:50:21;;;;;;;15.73;8.25;;;;;;;-1.22;70.94;97663.34;5005680;28;20503;-76
2022/01/31 05:52:46;;;;;;;16.45;8.18;;;;;;;-0.87;70.80;97695.81;5022787;28;20051;-77
2022/01/31 05:55:13;;;;;;;17.80;8.38;;;;;;;-0.87;70.50;97685.59;5025803;28;20137;-78
2022/01/31 05:57:39;;;;;;;16.75;8.07;;;;;;;-1.03;70.92;97655.75;5002906;28;20116;-79
2022/01/31 06:00:06;;;;;;;13.50;7.10;;;;;;;-1.19;70.01;97639.53;5024722;28;20033;-78
2022/01/31 06:02:32;;;;;;;18.10;8.98;;;;;;;-1.22;69.91;97642.94;4995348;28;20125;-75
2022/01/31 06:04:59;;;;;;;17.33;8.20;;;;;;;-1.06;70.05;97694.91;5005918;28;20041;-76
2022/01/31 06:07:25;;;;;;;20.40;9.02;;;;;;;-1.37;70.33;97665.00;5024481;28;20115;-76
2022/01/31 06:09:54;;;;;;;21.67;8.82;;;;;;;-1.22;70.69;97663.34;5007020;28;20070;-77
2022/01/31 06:12:20;;;;;;;19.77;9.40;;;;;;;-0.99;71.16;97680.47;4994017;28;20041;-76
2022/01/31 06:14:45;;;;;;;18.52;8.32;;;;;;;-0.84;70.95;97685.59;4995975;28;20140;-77
2022/01/31 06:17:11;;;;;;;22.02;8.93;;;;;;;-0.76;70.87;97672.84;5013059;28;20512;-77
2022/01/31 06:19:37;;;;;;;17.38;8.25;;;;;;;-0.99;69.60;97673.63;5003458;28;20037;-79
2022/01/31 06:22:03;;;;;;;22.90;9.52;;;;;;;-0.82;71.04;97691.56;5006644;28;20050;-75
2022/01/31 06:24:29;;;;;;;24.35;9.18;;;;;;;-0.71;70.24;97676.28;5026417;28;20068;-77
2022/01/31 06:27:04;;;;;;;20.70;9.60;;;;;;;-0.61;70.99;97678.03;4995302;28;20385;-78
2022/01/31 06:29:30;;;;;;;19.10;8.90;;;;;;;-0.57;69.93;97678.88;4993269;28;20068;-78
2022/01/31 06:32:07;;;;;;;25.52;9.40;;;;;;;-0.70;69.78;97677.16;5008552;28;20053;-78
2022/01/31 06:34:33;;;;;;;22.92;10.30;;;;;;;-0.91;70.39;97669.41;5016318;28;20033;-78
2022/01/31 06:37:02;;;;;;;27.13;10.10;;;;;;;-1.03;70.39;97651.53;5006391;28;20192;-77
2022/01/31 06:39:29;;;;;;;22.08;10.00;;;;;;;-0.76;70.93;97665.19;5007655;28;20080;-75
2022/01/31 06:41:55;;;;;;;24.42;9.60;;;;;;;-0.76;71.43;97642.19;5025187;28;20076;-77
2022/01/31 06:44:21;;;;;;;27.25;9.73;;;;;;;-0.61;70.58;97661.81;5019206;28;20061;-77
2022/01/31 06:46:48;;;;;;;24.23;10.57;;;;;;;-0.74;71.22;97625.19;5030719;28;20036;-78
2022/01/31 06:49:14;;;;;;;27.10;11.15;;;;;;;-0.67;71.16;97637.13;5029079;28;20037;-78
2022/01/31 06:51:39;;;;;;;22.40;8.75;;;;;;;-0.59;70.26;97638.84;5047709;28;20036;-78
2022/01/31 06:54:07;;;;;;;21.88;10.30;;;;;;;-0.52;70.46;97666.09;5016068;28;20073;-79
2022/01/31 06:56:39;;;;;;;22.70;10.43;;;;;;;-0.46;70.53;97661.00;5004046;28;20045;-79
2022/01/31 06:59:05;;;;;;;25.58;9.43;;;;;;;-0.53;71.17;97652.47;4987540;28;20099;-76
2022/01/31 07:01:31;;;;;;;25.20;10.65;;;;;;;-0.42;70.91;97638.84;4989661;28;20041;-80
2022/01/31 07:03:57;;;;;;;25.23;10.80;;;;;;;-0.31;69.66;97662.72;4993016;28;20064;-78
2022/01/31 07:06:26;;;;;;;26.20;10.40;;;;;;;-0.16;71.06;97655.03;5029848;28;20041;-77
2022/01/31 07:08:53;;;;;;;28.08;10.65;;;;;;;-0.06;70.11;97666.13;5022991;28;20091;-77
2022/01/31 07:11:25;;;;;;;26.73;10.40;;;;;;;-0.01;70.87;97656.75;5026809;28;20083;-77
2022/01/31 07:14:52;;;;;;;28.65;10.60;;;;;;;-0.05;70.99;97664.44;4995626;28;20406;-75
2022/01/31 07:16:46;;;;;;;24.48;10.02;;;;;;;0.08;70.32;97673.78;5021622;28;20048;-78
2022/01/31 07:19:12;;;;;;;24.98;10.10;;;;;;;0.07;69.78;97669.53;4979722;28;20046;-75
2022/01/31 07:21:46;;;;;;;24.42;10.05;;;;;;;-0.19;70.22;97655.03;4999298;28;20041;-77
2022/01/31 07:26:57;;;;;;;23.38;9.45;;;;;;;0.22;70.44;97671.22;5010218;28;20060;-75
2022/01/31 07:29:22;;;;;;;22.63;10.00;;;;;;;0.28;70.76;97678.88;5028036;28;20144;-76
2022/01/31 07:31:50;;;;;;;24.40;10.18;;;;;;;0.19;70.38;97652.47;5029572;28;20057;-78
2022/01/31 07:34:20;;;;;;;25.95;10.68;;;;;;;0.25;70.53;97640.50;4995385;28;20053;-78
2022/01/31 07:36:46;;;;;;;27.88;9.82;;;;;;;0.46;70.58;97649.00;5016656;28;20137;-78
2022/01/31 07:39:12;;;;;;;20.50;9.65;;;;;;;0.49;69.75;97640.44;4999686;28;20455;-79
2022/01/31 07:41:37;;;;;;;27.58;11.15;;;;;;;0.34;69.43;97657.56;5009257;28;20042;-77
2022/01/31 07:44:04;;;;;;;25.30;11.10;;;;;;;0.36;70.58;97653.28;4997010;28;20072;-77
2022/01/31 07:46:30;;;;;;;27.45;11.05;;;;;;;0.32;69.85;97638.78;4994683;28;20533;-75
2022/01/31 07:48:55;;;;;;;30.23;11.13;;;;;;;0.54;70.37;97670.31;5010051;28;20049;-77
2022/01/31 07:51:25;;;;;;;26.65;11.57;;;;;;;0.42;68.94;97652.41;5009390;28;20048;-78
2022/01/31 07:53:51;;;;;;;29.45;11.45;;;;;;;0.46;69.93;97674.59;4995474;28;20428;-78
2022/01/31 07:56:17;;;;;;;29.02;11.50;;;;;;;0.64;70.33;97672.81;5009154;28;20049;-77
2022/01/31 07:58:44;;;;;;;24.85;11.30;;;;;;;0.49;70.07;97664.34;5010934;28;20045;-77
2022/01/31 08:01:10;;;;;;;26.30;11.40;;;;;;;0.49;70.54;97656.66;5004750;28;20144;-77
2022/01/31 08:03:36;;;;;;;32.28;12.15;;;;;;;0.33;68.64;97666.06;4994463;28;20045;-80
2022/01/31 08:06:03;;;;;;;29.52;12.13;;;;;;;0.42;70.28;97678.88;5014719;28;20037;-76
2022/01/31 08:08:30;;;;;;;26.42;11.82;;;;;;;0.25;70.40;97655.00;5005514;28;20045;-78
2022/01/31 08:11:00;;;;;;;31.35;12.52;;;;;;;0.28;70.31;97655.00;5009657;28;20049;-77
2022/01/31 08:13:26;;;;;;;30.77;12.60;;;;;;;0.05;69.55;97655.88;5006388;28;20046;-76
2022/01/31 08:18:39;;;;;;;;;;;;;;;0.03;70.32;97683.16;5010423;28;20092;-77
2022/01/31 08:21:08;;;;;;;28.55;11.05;;;;;;;0.25;70.80;97686.56;5019089;28;19924;-77
2022/01/31 08:23:38;;;;;;;30.50;12.07;;;;;;;0.18;69.50;97678.91;5025697;28;20038;-76
2022/01/31 08:26:10;;;;;;;29.35;11.75;;;;;;;-0.06;70.54;97599.63;5014898;28;20054;-79
2022/01/31 08:28:43;;;;;;;29.67;11.57;;;;;;;0.44;69.16;97683.97;4990155;28;20046;-80
2022/01/31 08:34:18;;;;;;;31.17;11.32;;;;;;;0.12;68.99;97632.00;4999726;28;20072;-78
2022/01/31 08:36:44;;;;;;;34.92;12.82;;;;;;;0.38;69.96;97677.16;5004882;28;20046;-77
2022/01/31 08:39:18;;;;;;;27.80;11.77;;;;;;;0.17;68.62;97665.25;4987878;28;20132;-80
2022/01/31 08:41:47;;;;;;;30.65;12.13;;;;;;;0.02;69.68;97662.72;5000841;28;20058;-79
2022/01/31 08:44:15;;;;;;;32.67;11.70;;;;;;;0.12;69.15;97682.31;5004923;28;20050;-78
2022/01/31 08:46:41;;;;;;;33.17;12.63;;;;;;;0.07;69.67;97684.03;4991741;28;20061;-80
2022/01/31 08:49:09;;;;;;;35.03;13.23;;;;;;;0.10;70.02;97676.34;5003062;28;20088;-78
2022/01/31 08:51:45;;;;;;;30.35;11.30;;;;;;;0.23;69.50;97680.59;4978910;28;20065;-78
2022/01/31 08:54:13;;;;;;;31.17;11.75;;;;;;;0.22;70.25;97673.78;4975588;28;20045;-78
2022/01/31 08:56:43;;;;;;;32.85;12.73;;;;;;;-0.08;70.49;97626.91;4990997;28;20115;-80
2022/01/31 08:59:23;;;;;;;30.67;12.13;;;;;;;0.12;70.10;97644.78;4991737;28;20443;-78
2022/01/31 09:01:54;;;;;;;31.08;13.65;;;;;;;0.29;69.13;97666.94;5017804;28;20141;-78
2022/01/31 09:04:47;;;;;;;36.28;13.10;;;;;;;0.18;69.24;97671.22;5008962;28;20042;-79
2022/01/31 09:07:24;;;;;;;35.45;12.77;;;;;;;-0.02;69.80;97657.59;4988223;28;20052;-77
2022/01/31 09:09:54;;;;;;;36.28;13.75;;;;;;;-0.11;70.47;97646.53;5007783;28;20042;-78
2022/01/31 09:12:23;;;;;;;38.92;13.00;;;;;;;-0.19;71.36;97595.41;4989477;28;20472;-78
2022/01/31 09:14:48;;;;;;;35.17;12.50;;;;;;;0.18;70.34;97628.59;4992566;28;20065;-79
2022/01/31 09:17:15;;;;;;;34.33;12.55;;;;;;;0.18;70.20;97631.13;5007396;28;20046;-77
2022/01/31 09:19:40;;;;;;;37.83;14.40;;;;;;;0.43;70.27;97657.53;5013883;28;20072;-79
2022/01/31 09:22:07;;;;;;;30.60;11.23;;;;;;;0.11;68.85;97640.53;4994826;28;20096;-76
2022/01/31 09:24:39;;;;;;;35.83;13.15;;;;;;;0.02;70.75;97599.63;4990194;28;20046;-80
2022/01/31 09:27:09;;;;;;;34.75;13.15;;;;;;;0.47;70.67;97648.13;5005142;28;20041;-79
2022/01/31 09:29:35;;;;;;;36.08;13.48;;;;;;;0.64;70.35;97657.47;5001965;28;20069;-80
2022/01/31 09:32:03;;;;;;;36.28;12.88;;;;;;;0.68;69.42;97654.03;5007677;28;20041;-81
2022/01/31 09:34:32;;;;;;;39.90;13.45;;;;;;;0.62;70.01;97654.06;4995113;28;20046;-79
2022/01/31 09:36:59;;;;;;;40.65;13.23;;;;;;;0.40;69.45;97649.88;5007446;28;20042;-78
2022/01/31 09:39:25;;;;;;;35.80;14.75;;;;;;;0.34;70.85;97597.84;4999369;28;20042;-78
2022/01/31 09:41:56;;;;;;;37.15;12.85;;;;;;;0.65;69.47;97598.59;4995252;28;20581;-81
2022/01/31 09:49:24;;;;;;;32.28;12.70;;;;;;;0.86;68.56;97664.22;4996798;28;20507;-81
2022/01/31 09:51:51;;;;;;;38.45;13.68;;;;;;;0.59;68.94;97644.69;4993821;28;20052;-81
2022/01/31 09:54:16;;;;;;;36.53;14.18;;;;;;;0.35;70.12;97604.66;5009018;28;20045;-79
2022/01/31 09:56:45;;;;;;;34.22;13.48;;;;;;;0.62;69.66;97643.81;4995128;28;20037;-77
2022/01/31 09:59:12;;;;;;;35.58;13.65;;;;;;;0.75;69.68;97660.84;5015077;28;20042;-79
2022/01/31 10:01:57;;;;;;;32.70;12.23;;;;;;;0.49;68.70;97651.56;5042097;28;20146;-77
2022/01/31 10:04:28;;;;;;;38.28;14.13;;;;;;;0.39;69.01;97649.84;5020995;28;20148;-80
2022/01/31 10:06:57;;;;;;;32.65;13.80;;;;;;;0.59;70.60;97640.41;5030182;28;20037;-78
2022/01/31 10:09:25;;;;;;;33.05;13.00;;;;;;;0.71;69.98;97613.06;4994260;28;20033;-78
2022/01/31 10:11:57;;;;;;;33.30;13.90;;;;;;;0.63;70.31;97578.97;5006541;28;20048;-77
2022/01/31 10:17:23;;;;;;;34.17;14.07;;;;;;;0.91;69.67;97628.34;4989282;28;20037;-77
2022/01/31 10:19:52;;;;;;;32.25;12.75;;;;;;;0.72;69.46;97599.41;5026914;28;20065;-77
2022/01/31 10:22:20;;;;;;;33.60;13.52;;;;;;;0.85;69.96;97634.34;5008441;28;20140;-80
2022/01/31 10:24:48;;;;;;;32.78;13.68;;;;;;;0.79;70.26;97608.75;5025536;28;20045;-75
2022/01/31 10:27:17;;;;;;;35.42;14.45;;;;;;;1.22;70.42;97629.88;5006154;28;20030;-78
2022/01/31 10:29:45;;;;;;;31.30;13.77;;;;;;;1.23;69.85;97622.19;5025731;28;20047;-78
2022/01/31 10:32:26;;;;;;;31.02;13.15;;;;;;;1.03;69.65;97578.75;5010190;28;20033;-76
2022/01/31 10:34:58;;;;;;;32.15;12.90;;;;;;;1.08;68.34;97623.13;5023371;28;20493;-79
2022/01/31 10:37:26;;;;;;;33.25;14.52;;;;;;;0.95;69.37;97629.19;5023692;28;20455;-80
2022/01/31 10:51:56;;;;;;;33.90;13.45;;;;;;;1.16;69.22;97617.97;5010526;28;20053;-78
2022/01/31 10:56:22;;;;;;;37.53;14.50;;;;;;;1.28;70.12;97634.97;5025190;28;20139;-77
2022/01/31 10:59:12;;;;;;;30.10;13.48;;;;;;;1.26;68.83;97603.38;5024920;28;20049;-78
2022/01/31 11:01:40;;;;;;;33.00;13.90;;;;;;;0.96;69.12;97582.22;5004416;28;20520;-78
2022/01/31 11:04:14;;;;;;;39.03;13.88;;;;;;;1.11;69.28;97610.31;5005497;28;20159;-80
2022/01/31 11:06:45;;;;;;;29.90;13.02;;;;;;;1.14;69.46;97599.19;5020003;28;20056;-78
2022/01/31 11:09:14;;;;;;;38.90;13.90;;;;;;;1.11;68.81;97599.19;5003975;28;20131;-77
2022/01/31 11:11:48;;;;;;;35.95;13.52;;;;;;;0.85;69.43;97589.97;5006417;28;20057;-78
2022/01/31 11:14:15;;;;;;;34.60;14.10;;;;;;;0.76;69.31;97606.22;4989457;28;20042;-78
2022/01/31 11:16:46;;;;;;;33.58;14.50;;;;;;;0.54;70.25;97596.09;5024413;28;20045;-80
2022/01/31 11:19:15;;;;;;;28.13;13.70;;;;;;;0.62;69.06;97592.63;5022649;28;20037;-79
2022/01/31 11:21:44;;;;;;;37.78;13.40;;;;;;;0.71;69.13;97618.19;5006056;28;20069;-80
2022/01/31 11:24:27;;;;;;;34.88;14.45;;;;;;;0.59;69.89;97584.09;4984039;28;20049;-78
2022/01/31 11:27:32;;;;;;;32.33;12.43;;;;;;;0.94;70.38;97607.00;4989945;28;20140;-79
2022/01/31 11:30:00;;;;;;;34.55;13.40;;;;;;;0.81;69.30;97573.75;4955847;28;20526;-79
2022/01/31 11:32:28;;;;;;;29.15;12.40;;;;;;;0.81;68.84;97611.31;4941866;28;20697;-81
2022/01/31 11:34:55;;;;;;;26.27;11.95;;;;;;;0.46;68.45;97587.56;4968293;28;20101;-79
2022/01/31 11:37:22;;;;;;;36.85;13.60;;;;;;;0.62;70.48;97613.97;5008019;28;20128;-81
2022/01/31 11:40:07;;;;;;;29.58;12.82;;;;;;;0.62;69.74;97601.16;4960843;28;20109;-81
2022/01/31 11:42:34;;;;;;;28.60;13.07;;;;;;;0.84;70.10;97619.00;5019727;28;20140;-80
2022/01/31 11:45:04;;;;;;;31.50;13.05;;;;;;;1.00;70.86;97612.06;4983139;28;20078;-78
2022/01/31 11:47:32;;;;;;;28.90;12.40;;;;;;;0.99;69.62;97610.38;5002780;28;20173;-81
2022/01/31 11:50:07;;;;;;;30.20;12.77;;;;;;;0.80;70.17;97609.63;4975140;28;20104;-78
2022/01/31 11:52:46;;;;;;;30.10;11.85;;;;;;;0.84;69.03;97619.84;5007266;28;20042;-79
2022/01/31 11:55:16;;;;;;;28.92;11.60;;;;;;;0.73;70.26;97619.88;5007244;28;20414;-79
2022/01/31 11:57:47;;;;;;;31.65;12.52;;;;;;;0.49;69.45;97587.56;4978696;28;20057;-77
2022/01/31 12:00:17;;;;;;;36.63;13.98;;;;;;;0.48;69.94;97611.47;5007199;28;20061;-78
2022/01/31 12:03:00;;;;;;;33.10;14.25;;;;;;;0.58;70.51;97622.50;5007002;28;20084;-79